createdAt,value
2022-10-30T00:01:05.909Z,15.10
2022-10-30T00:04:10.069Z,15.10
2022-10-30T00:07:12.953Z,15.10
2022-10-30T00:10:16.491Z,15.10
2022-10-30T00:13:20.378Z,15.10
2022-10-30T00:16:23.260Z,15.10
2022-10-30T00:19:27.587Z,15.00
2022-10-30T00:22:30.661Z,15.00
2022-10-30T00:25:35.457Z,15.00
2022-10-30T00:28:38.323Z,14.90
2022-10-30T00:31:41.201Z,14.90
2022-10-30T00:34:45.484Z,14.90
2022-10-30T00:37:48.350Z,14.80
2022-10-30T00:40:51.200Z,14.80
2022-10-30T00:43:54.364Z,14.80
2022-10-30T00:46:58.819Z,14.80
2022-10-30T00:50:09.026Z,14.80
2022-10-30T00:53:14.673Z,14.70
2022-10-30T00:56:23.134Z,14.70
2022-10-30T00:59:29.326Z,14.70
2022-10-30T01:02:32.811Z,14.60
2022-10-30T01:05:37.481Z,14.60
2022-10-30T01:08:42.078Z,14.60
2022-10-30T01:11:44.993Z,14.60
2022-10-30T01:14:53.364Z,14.50
2022-10-30T01:18:28.591Z,14.50
2022-10-30T01:22:01.954Z,14.50
2022-10-30T01:25:18.176Z,14.50
2022-10-30T01:28:43.316Z,14.50
2022-10-30T01:32:00.005Z,14.40
2022-10-30T01:35:21.329Z,14.40
2022-10-30T01:38:30.463Z,14.40
2022-10-30T01:41:33.362Z,14.30
2022-10-30T01:44:36.440Z,14.30
2022-10-30T01:47:49.967Z,14.20
2022-10-30T01:50:58.919Z,14.20
2022-10-30T01:54:14.401Z,14.20
2022-10-30T01:57:30.272Z,14.20
2022-10-30T02:00:33.133Z,14.20
2022-10-30T02:03:36.078Z,14.20
2022-10-30T02:06:39.483Z,14.10
2022-10-30T02:09:44.130Z,14.10
2022-10-30T02:12:47.004Z,14.10
2022-10-30T02:15:50.765Z,14.00
2022-10-30T02:18:53.603Z,14.00
2022-10-30T02:21:58.079Z,14.00
2022-10-30T02:25:00.965Z,14.00
2022-10-30T02:28:03.827Z,13.90
2022-10-30T02:31:07.607Z,13.90
2022-10-30T02:34:10.440Z,13.90
2022-10-30T02:37:14.612Z,13.80
2022-10-30T02:40:17.529Z,13.80
2022-10-30T02:43:20.344Z,13.80
2022-10-30T02:46:23.453Z,13.80
2022-10-30T02:49:26.247Z,13.70
2022-10-30T02:52:30.663Z,13.70
2022-10-30T02:55:34.059Z,13.70
2022-10-30T02:58:37.259Z,13.60
2022-10-30T03:01:40.254Z,13.60
2022-10-30T03:04:43.211Z,13.60
2022-10-30T03:07:48.704Z,13.60
2022-10-30T03:10:51.577Z,13.50
2022-10-30T03:13:54.990Z,13.50
2022-10-30T03:16:57.932Z,13.50
2022-10-30T03:20:00.751Z,13.50
2022-10-30T03:23:04.980Z,13.50
2022-10-30T03:26:08.148Z,13.40
2022-10-30T03:29:10.998Z,13.40
2022-10-30T03:32:15.355Z,13.40
2022-10-30T03:35:18.244Z,13.40
2022-10-30T03:38:22.489Z,13.40
2022-10-30T03:41:25.366Z,13.30
2022-10-30T03:44:29.764Z,13.30
2022-10-30T03:47:32.693Z,13.30
2022-10-30T03:50:35.554Z,13.30
2022-10-30T03:53:47.666Z,13.40
2022-10-30T03:56:50.505Z,13.40
2022-10-30T03:59:53.368Z,13.30
2022-10-30T04:02:56.718Z,13.40
2022-10-30T04:05:59.898Z,13.50
2022-10-30T04:09:04.321Z,13.60
2022-10-30T04:12:07.530Z,13.60
2022-10-30T04:15:10.715Z,13.60
2022-10-30T04:18:16.259Z,13.70
2022-10-30T04:21:19.183Z,13.70
2022-10-30T04:24:23.382Z,13.80
2022-10-30T04:27:32.617Z,13.80
2022-10-30T04:30:37.233Z,13.80
2022-10-30T04:33:42.402Z,13.80
2022-10-30T04:36:46.329Z,13.80
2022-10-30T04:39:50.861Z,13.80
2022-10-30T04:42:58.699Z,13.80
2022-10-30T04:46:05.805Z,13.80
2022-10-30T04:49:08.876Z,13.80
2022-10-30T04:52:11.681Z,13.80
2022-10-30T04:55:16.026Z,13.90
2022-10-30T04:58:18.817Z,13.90
2022-10-30T05:01:21.787Z,13.90
2022-10-30T05:04:25.926Z,13.90
2022-10-30T05:07:28.738Z,13.90
2022-10-30T05:10:33.019Z,13.90
2022-10-30T05:13:35.860Z,13.90
2022-10-30T05:16:38.797Z,13.90
2022-10-30T05:19:48.025Z,14.00
2022-10-30T05:22:56.370Z,14.00
2022-10-30T05:26:02.699Z,14.00
2022-10-30T05:29:05.609Z,14.00
2022-10-30T05:32:08.528Z,13.90
2022-10-30T05:35:11.435Z,13.90
2022-10-30T05:38:15.646Z,13.90
2022-10-30T05:41:20.059Z,13.90
2022-10-30T05:44:40.474Z,13.90
2022-10-30T05:47:54.909Z,13.90
2022-10-30T05:50:58.250Z,13.90
2022-10-30T05:54:01.248Z,13.90
2022-10-30T05:57:05.565Z,14.00
2022-10-30T06:00:09.786Z,13.90
2022-10-30T06:03:14.019Z,13.90
2022-10-30T06:06:17.708Z,13.90
2022-10-30T06:09:20.522Z,14.00
2022-10-30T06:12:24.787Z,14.00
2022-10-30T06:15:28.226Z,14.00
2022-10-30T06:18:31.045Z,14.00
2022-10-30T06:21:33.889Z,14.00
2022-10-30T06:24:36.753Z,14.10
2022-10-30T06:27:41.047Z,14.00
2022-10-30T06:30:43.853Z,14.10
2022-10-30T06:33:46.783Z,14.10
2022-10-30T06:36:49.686Z,14.10
2022-10-30T06:39:52.664Z,14.20
2022-10-30T06:42:57.262Z,14.10
2022-10-30T06:46:00.521Z,14.10
2022-10-30T06:49:03.410Z,14.20
2022-10-30T06:52:06.238Z,14.20
2022-10-30T06:55:10.276Z,14.20
2022-10-30T06:58:14.781Z,14.30
2022-10-30T07:01:17.765Z,14.30
2022-10-30T07:04:20.728Z,14.30
2022-10-30T07:07:23.631Z,14.30
2022-10-30T07:10:27.561Z,14.40
2022-10-30T07:13:31.808Z,14.40
2022-10-30T07:16:34.644Z,14.40
2022-10-30T07:19:48.201Z,14.40
2022-10-30T07:22:51.323Z,14.50
2022-10-30T07:25:55.561Z,14.50
2022-10-30T07:29:02.785Z,14.60
2022-10-30T07:32:06.217Z,14.60
2022-10-30T07:35:10.478Z,14.70
2022-10-30T07:38:14.224Z,14.70
2022-10-30T07:41:18.375Z,14.80
2022-10-30T07:44:22.598Z,14.90
2022-10-30T07:47:25.423Z,15.00
2022-10-30T07:50:28.540Z,15.00
2022-10-30T07:53:31.732Z,15.10
2022-10-30T07:56:34.695Z,15.20
2022-10-30T07:59:39.632Z,15.20
2022-10-30T08:02:45.803Z,15.20
2022-10-30T08:05:48.732Z,15.30
2022-10-30T08:08:51.549Z,15.30
2022-10-30T08:11:54.416Z,15.40
2022-10-30T08:14:58.657Z,15.50
2022-10-30T08:18:01.951Z,15.70
2022-10-30T08:21:04.964Z,15.80
2022-10-30T08:24:08.487Z,15.80
2022-10-30T08:27:11.405Z,15.90
2022-10-30T08:30:15.965Z,16.00
2022-10-30T08:33:18.963Z,16.00
2022-10-30T08:36:21.798Z,15.90
2022-10-30T08:39:24.636Z,15.90
2022-10-30T08:42:28.652Z,15.90
2022-10-30T08:45:32.905Z,15.90
2022-10-30T08:48:36.144Z,15.90
2022-10-30T08:51:39.095Z,16.00
2022-10-30T08:54:41.937Z,16.10
2022-10-30T08:57:45.260Z,16.20
2022-10-30T09:00:50.887Z,16.40
2022-10-30T09:03:53.723Z,16.60
2022-10-30T09:06:56.647Z,16.80
2022-10-30T09:09:59.497Z,17.00
2022-10-30T09:13:03.209Z,17.20
2022-10-30T09:16:08.397Z,17.40
2022-10-30T09:19:16.094Z,17.50
2022-10-30T09:22:21.664Z,17.50
2022-10-30T09:25:24.485Z,17.50
2022-10-30T09:28:27.363Z,17.40
2022-10-30T09:31:31.606Z,17.40
2022-10-30T09:34:34.495Z,17.50
2022-10-30T09:37:37.615Z,17.60
2022-10-30T09:41:10.434Z,17.80
2022-10-30T09:44:24.507Z,18.00
2022-10-30T09:47:36.314Z,18.20
2022-10-30T09:50:46.258Z,18.40
2022-10-30T09:54:00.397Z,18.60
2022-10-30T09:57:17.056Z,18.70
2022-10-30T10:00:22.592Z,18.90
2022-10-30T10:03:39.782Z,19.10
2022-10-30T10:06:54.436Z,19.20
2022-10-30T10:10:02.339Z,19.40
2022-10-30T10:13:06.835Z,19.50
2022-10-30T10:16:17.333Z,19.70
2022-10-30T10:19:23.597Z,19.80
2022-10-30T10:22:32.142Z,20.00
2022-10-30T10:25:36.996Z,20.10
2022-10-30T10:28:53.416Z,20.20
2022-10-30T10:32:10.056Z,20.40
2022-10-30T10:35:38.955Z,20.50
2022-10-30T10:39:01.011Z,20.70
2022-10-30T10:42:20.225Z,20.70
2022-10-30T10:45:31.797Z,20.80
2022-10-30T10:49:04.707Z,20.90
2022-10-30T10:52:12.713Z,21.00
2022-10-30T10:55:27.668Z,21.00
2022-10-30T10:58:36.386Z,21.10
2022-10-30T11:01:41.560Z,21.20
2022-10-30T11:04:50.844Z,21.40
2022-10-30T11:07:58.439Z,21.30
2022-10-30T11:11:03.493Z,21.40
2022-10-30T11:14:14.562Z,21.40
2022-10-30T11:17:22.699Z,21.50
2022-10-30T11:20:34.316Z,21.50
2022-10-30T11:23:40.944Z,21.60
2022-10-30T11:26:44.031Z,21.60
2022-10-30T11:29:52.917Z,21.70
2022-10-30T11:32:57.251Z,21.70
2022-10-30T11:36:15.465Z,21.70
2022-10-30T11:39:27.392Z,21.80
2022-10-30T11:42:30.471Z,21.90
2022-10-30T11:45:37.201Z,21.90
2022-10-30T11:48:44.337Z,22.00
2022-10-30T11:51:48.005Z,22.00
2022-10-30T11:54:56.184Z,22.10
2022-10-30T11:58:00.677Z,22.10
2022-10-30T12:01:08.924Z,22.20
2022-10-30T12:04:17.466Z,22.30
2022-10-30T12:07:26.599Z,22.20
2022-10-30T12:10:31.840Z,22.10
2022-10-30T12:13:39.920Z,22.10
2022-10-30T12:16:50.624Z,22.20
2022-10-30T12:19:57.395Z,22.30
2022-10-30T12:23:09.510Z,22.30
2022-10-30T12:26:16.471Z,22.30
2022-10-30T12:29:36.434Z,22.30
2022-10-30T12:32:53.465Z,22.30
2022-10-30T12:35:58.265Z,22.30
2022-10-30T12:39:05.980Z,22.30
2022-10-30T12:42:15.845Z,22.30
2022-10-30T12:45:25.123Z,22.30
2022-10-30T12:48:37.176Z,22.30
2022-10-30T12:51:47.639Z,22.40
2022-10-30T12:54:55.911Z,22.30
2022-10-30T12:58:10.024Z,22.20
2022-10-30T13:01:24.301Z,22.20
2022-10-30T13:04:34.382Z,22.10
2022-10-30T13:07:42.617Z,22.10
2022-10-30T13:10:49.163Z,22.10
2022-10-30T13:13:56.448Z,22.00
2022-10-30T13:17:12.733Z,22.00
2022-10-30T13:20:17.167Z,22.00
2022-10-30T13:23:29.342Z,22.00
2022-10-30T13:26:44.946Z,22.00
2022-10-30T13:29:55.314Z,22.00
2022-10-30T13:33:07.531Z,22.00
2022-10-30T13:36:17.197Z,22.10
2022-10-30T13:39:28.192Z,22.00
2022-10-30T13:42:42.645Z,22.00
2022-10-30T13:46:11.928Z,21.90
2022-10-30T13:49:33.840Z,21.90
2022-10-30T13:52:41.714Z,21.80
2022-10-30T13:55:46.128Z,21.80
2022-10-30T13:59:00.101Z,21.80
2022-10-30T14:02:22.163Z,21.80
2022-10-30T14:05:32.396Z,21.70
2022-10-30T14:08:40.934Z,21.70
2022-10-30T14:11:44.005Z,21.60
2022-10-30T14:14:48.947Z,21.60
2022-10-30T14:18:32.968Z,21.50
2022-10-30T14:21:53.148Z,21.30
2022-10-30T14:24:56.085Z,21.30
2022-10-30T14:28:00.566Z,21.20
2022-10-30T14:31:04.839Z,21.10
2022-10-30T14:34:43.640Z,21.00
2022-10-30T14:37:58.193Z,20.90
2022-10-30T14:41:35.859Z,20.80
2022-10-30T14:44:50.930Z,20.60
2022-10-30T14:48:00.715Z,20.50
2022-10-30T14:51:17.533Z,20.40
2022-10-30T14:54:25.309Z,20.30
2022-10-30T14:57:48.234Z,20.20
2022-10-30T15:00:52.762Z,20.20
2022-10-30T15:04:08.767Z,20.10
2022-10-30T15:07:23.624Z,20.10
2022-10-30T15:10:32.296Z,19.90
2022-10-30T15:13:35.278Z,19.80
2022-10-30T15:16:41.723Z,19.70
2022-10-30T15:19:44.590Z,19.60
2022-10-30T15:22:53.978Z,19.40
2022-10-30T15:26:00.790Z,19.30
2022-10-30T15:29:08.155Z,19.20
2022-10-30T15:32:17.773Z,19.10
2022-10-30T15:35:22.662Z,18.90
2022-10-30T15:38:26.907Z,18.80
2022-10-30T15:41:35.931Z,18.60
2022-10-30T15:44:42.278Z,18.50
2022-10-30T15:47:47.695Z,18.40
2022-10-30T15:50:56.922Z,18.20
2022-10-30T15:54:03.746Z,18.10
2022-10-30T15:57:42.858Z,18.00
2022-10-30T16:00:32.908Z,17.90
2022-10-30T16:03:35.764Z,17.80
2022-10-30T16:06:38.776Z,17.70
2022-10-30T16:09:53.796Z,17.60
2022-10-30T16:12:59.217Z,17.50
2022-10-30T16:16:04.629Z,17.40
2022-10-30T16:19:07.650Z,17.30
2022-10-30T16:22:15.508Z,17.20
2022-10-30T16:25:21.740Z,17.10
2022-10-30T16:28:26.707Z,17.00
2022-10-30T16:31:35.667Z,16.90
2022-10-30T16:34:40.501Z,16.90
2022-10-30T16:37:43.585Z,16.80
2022-10-30T16:40:48.720Z,16.70
2022-10-30T16:44:14.599Z,16.60
2022-10-30T16:47:26.205Z,16.60
2022-10-30T16:50:34.878Z,16.50
2022-10-30T16:53:37.774Z,16.40
2022-10-30T16:56:47.417Z,16.40
2022-10-30T16:59:53.007Z,16.30
2022-10-30T17:02:58.677Z,16.20
2022-10-30T17:06:04.395Z,16.20
2022-10-30T17:09:09.498Z,16.10
2022-10-30T17:12:18.866Z,16.10
2022-10-30T17:15:23.670Z,16.00
2022-10-30T17:18:31.490Z,16.00
2022-10-30T17:21:40.672Z,15.90
2022-10-30T17:24:43.961Z,15.80
2022-10-30T17:27:50.130Z,15.80
2022-10-30T17:30:52.999Z,15.70
2022-10-30T17:34:14.217Z,15.70
2022-10-30T17:37:17.203Z,15.60
2022-10-30T17:40:20.494Z,15.60
2022-10-30T17:43:28.788Z,15.50
2022-10-30T17:46:31.643Z,15.50
2022-10-30T17:49:34.891Z,15.50
2022-10-30T17:52:37.763Z,15.40
2022-10-30T17:55:41.708Z,15.30
2022-10-30T17:58:46.032Z,15.30
2022-10-30T18:01:49.891Z,15.30
2022-10-30T18:04:54.885Z,15.30
2022-10-30T18:07:57.756Z,15.20
2022-10-30T18:11:02.271Z,15.20
2022-10-30T18:14:06.580Z,15.20
2022-10-30T18:17:10.537Z,15.10
2022-10-30T18:20:13.441Z,15.10
2022-10-30T18:23:46.743Z,15.10
2022-10-30T18:26:43.365Z,15.00
2022-10-30T18:29:50.423Z,15.00
2022-10-30T18:32:53.238Z,15.00
2022-10-30T18:35:57.538Z,14.90
2022-10-30T18:39:00.328Z,14.90
2022-10-30T18:42:03.253Z,14.80
2022-10-30T18:45:21.784Z,14.80
2022-10-30T18:48:24.701Z,14.80
2022-10-30T18:51:29.112Z,14.80
2022-10-30T18:54:31.936Z,14.70
2022-10-30T18:57:39.742Z,14.70
2022-10-30T19:01:10.655Z,14.70
2022-10-30T19:04:09.889Z,14.60
2022-10-30T19:07:12.739Z,14.60
2022-10-30T19:10:15.755Z,14.50
2022-10-30T19:13:22.213Z,14.50
2022-10-30T19:16:27.152Z,14.50
2022-10-30T19:19:29.978Z,14.50
2022-10-30T19:22:32.850Z,14.50
2022-10-30T19:25:37.246Z,14.40
2022-10-30T19:28:41.051Z,14.40
2022-10-30T19:31:45.356Z,14.40
2022-10-30T19:34:48.197Z,14.30
2022-10-30T19:37:51.047Z,14.30
2022-10-30T19:40:54.190Z,14.30
2022-10-30T19:43:57.784Z,14.30
2022-10-30T19:47:02.035Z,14.20
2022-10-30T19:50:20.227Z,14.20
2022-10-30T19:53:23.113Z,14.20
2022-10-30T19:56:25.972Z,14.20
2022-10-30T19:59:28.832Z,14.20
2022-10-30T20:02:33.048Z,14.10
2022-10-30T20:05:38.202Z,14.10
2022-10-30T20:08:43.263Z,14.10
2022-10-30T20:11:47.258Z,14.10
2022-10-30T20:14:50.099Z,14.00
2022-10-30T20:18:02.601Z,14.00
2022-10-30T20:21:14.679Z,14.00
2022-10-30T20:24:17.480Z,13.90
2022-10-30T20:27:20.385Z,13.90
2022-10-30T20:30:25.278Z,13.90
2022-10-30T20:33:30.060Z,13.80
2022-10-30T20:36:32.968Z,13.80
2022-10-30T20:39:35.944Z,13.90
2022-10-30T20:42:38.869Z,13.80
2022-10-30T20:45:41.956Z,13.80
2022-10-30T20:48:46.260Z,13.80
2022-10-30T20:51:49.457Z,13.70
2022-10-30T20:54:52.401Z,13.70
2022-10-30T20:58:01.472Z,13.70
2022-10-30T21:01:05.074Z,13.70
2022-10-30T21:04:09.435Z,13.60
2022-10-30T21:07:12.301Z,13.60
2022-10-30T21:10:15.206Z,13.70
2022-10-30T21:13:19.085Z,13.60
2022-10-30T21:16:21.959Z,13.60
2022-10-30T21:19:26.889Z,13.60
2022-10-30T21:22:29.784Z,13.60
2022-10-30T21:25:32.904Z,13.60
2022-10-30T21:28:35.897Z,13.60
2022-10-30T21:31:38.762Z,13.60
2022-10-30T21:34:43.082Z,13.50
2022-10-30T21:37:45.984Z,13.60
2022-10-30T21:40:55.926Z,13.50
2022-10-30T21:43:59.861Z,13.50
2022-10-30T21:47:02.718Z,13.50
2022-10-30T21:50:12.222Z,13.50
2022-10-30T21:53:15.648Z,13.50
2022-10-30T21:56:20.016Z,13.50
2022-10-30T21:59:24.203Z,13.50
2022-10-30T22:02:27.034Z,13.50
2022-10-30T22:05:33.505Z,13.50
2022-10-30T22:08:39.645Z,13.50
2022-10-30T22:11:43.902Z,13.50
2022-10-30T22:14:46.778Z,13.40
2022-10-30T22:17:49.633Z,13.40
2022-10-30T22:20:59.388Z,13.40
2022-10-30T22:24:03.753Z,13.40
2022-10-30T22:27:06.745Z,13.30
2022-10-30T22:30:10.739Z,13.30
2022-10-30T22:33:16.439Z,13.30
2022-10-30T22:36:22.918Z,13.30
2022-10-30T22:39:25.799Z,13.30
2022-10-30T22:42:28.963Z,13.20
2022-10-30T22:45:31.828Z,13.20
2022-10-30T22:48:34.843Z,13.20
2022-10-30T22:51:40.253Z,13.20
2022-10-30T22:54:43.090Z,13.20
2022-10-30T22:57:45.946Z,13.10
2022-10-30T23:00:49.041Z,13.20
2022-10-30T23:03:52.728Z,13.10
2022-10-30T23:06:56.935Z,13.10
2022-10-30T23:09:59.817Z,13.10
2022-10-30T23:13:02.652Z,13.00
2022-10-30T23:16:15.030Z,13.00
2022-10-30T23:19:17.896Z,13.00
2022-10-30T23:22:22.147Z,13.00
2022-10-30T23:25:24.978Z,13.00
2022-10-30T23:28:27.926Z,13.00
2022-10-30T23:31:36.436Z,13.00
2022-10-30T23:34:39.299Z,12.90
2022-10-30T23:37:43.445Z,12.90
2022-10-30T23:40:46.284Z,12.90
2022-10-30T23:43:49.571Z,12.80
2022-10-30T23:46:52.437Z,12.80
2022-10-30T23:50:03.274Z,12.80
2022-10-30T23:53:07.543Z,12.80
2022-10-30T23:56:11.534Z,12.70
2022-10-30T23:59:17.430Z,12.70
